createdAt,value
2023-04-11T00:01:46.682Z,59.54
2023-04-11T00:03:49.362Z,59.68
2023-04-11T00:05:51.489Z,59.66
2023-04-11T00:07:53.634Z,59.30
2023-04-11T00:09:55.609Z,60.53
2023-04-11T00:11:57.985Z,60.43
2023-04-11T00:14:01.328Z,60.59
2023-04-11T00:16:03.724Z,60.36
2023-04-11T00:18:06.882Z,60.31
2023-04-11T00:20:11.081Z,60.25
2023-04-11T00:22:14.013Z,60.99
2023-04-11T00:24:15.989Z,60.60
2023-04-11T00:26:17.940Z,60.59
2023-04-11T00:28:19.995Z,60.75
2023-04-11T00:30:22.714Z,60.25
2023-04-11T00:32:25.277Z,60.63
2023-04-11T00:34:28.144Z,60.93
2023-04-11T00:36:31.886Z,60.65
2023-04-11T00:38:34.022Z,61.10
2023-04-11T00:40:35.960Z,60.71
2023-04-11T00:42:38.501Z,60.82
2023-04-11T00:44:40.455Z,60.59
2023-04-11T00:46:45.991Z,60.97
2023-04-11T00:48:49.102Z,61.21
2023-04-11T00:50:51.044Z,61.28
2023-04-11T00:52:55.458Z,61.42
2023-04-11T00:54:58.445Z,60.95
2023-04-11T00:57:02.711Z,60.94
2023-04-11T00:59:04.824Z,61.30
2023-04-11T01:01:09.260Z,61.65
2023-04-11T01:03:12.176Z,61.21
2023-04-11T01:05:15.112Z,61.14
2023-04-11T01:07:20.039Z,61.35
2023-04-11T01:09:24.546Z,61.19
2023-04-11T01:11:26.707Z,62.02
2023-04-11T01:13:30.920Z,61.50
2023-04-11T01:15:33.009Z,62.12
2023-04-11T01:17:35.367Z,61.58
2023-04-11T01:19:37.379Z,62.66
2023-04-11T01:21:39.876Z,62.42
2023-04-11T01:23:41.876Z,63.01
2023-04-11T01:25:43.815Z,62.78
2023-04-11T01:27:48.430Z,63.04
2023-04-11T01:29:51.555Z,62.41
2023-04-11T01:31:54.589Z,62.83
2023-04-11T01:33:56.613Z,62.72
2023-04-11T01:35:58.983Z,63.19
2023-04-11T01:38:01.038Z,63.11
2023-04-11T01:40:03.454Z,63.48
2023-04-11T01:42:06.811Z,63.62
2023-04-11T01:44:08.826Z,63.92
2023-04-11T01:46:11.739Z,63.62
2023-04-11T01:48:15.516Z,63.27
2023-04-11T01:50:17.511Z,63.96
2023-04-11T01:52:19.609Z,63.04
2023-04-11T01:54:26.228Z,63.48
2023-04-11T01:56:28.196Z,63.53
2023-04-11T01:58:30.116Z,64.08
2023-04-11T02:00:32.623Z,63.54
2023-04-11T02:02:34.635Z,63.70
2023-04-11T02:04:36.726Z,64.40
2023-04-11T02:06:38.963Z,64.41
2023-04-11T02:08:40.953Z,63.96
2023-04-11T02:10:42.910Z,63.62
2023-04-11T02:12:44.872Z,63.63
2023-04-11T02:14:46.946Z,63.98
2023-04-11T02:16:51.808Z,64.24
2023-04-11T02:18:54.384Z,63.55
2023-04-11T02:20:56.575Z,64.05
2023-04-11T02:22:59.121Z,63.23
2023-04-11T02:25:01.022Z,63.82
2023-04-11T02:27:03.423Z,63.34
2023-04-11T02:29:05.415Z,63.63
2023-04-11T02:31:07.825Z,63.87
2023-04-11T02:33:09.802Z,64.05
2023-04-11T02:35:11.758Z,64.18
2023-04-11T02:37:13.712Z,64.38
2023-04-11T02:39:26.520Z,64.68
2023-04-11T02:41:28.438Z,64.68
2023-04-11T02:43:30.326Z,64.50
2023-04-11T02:45:32.405Z,64.41
2023-04-11T02:47:34.386Z,65.06
2023-04-11T02:49:36.565Z,64.57
2023-04-11T02:51:38.594Z,64.69
2023-04-11T02:53:41.305Z,64.77
2023-04-11T02:55:43.524Z,65.28
2023-04-11T02:57:45.579Z,65.06
2023-04-11T02:59:47.572Z,65.45
2023-04-11T03:01:49.634Z,65.45
2023-04-11T03:03:51.994Z,65.61
2023-04-11T03:05:54.147Z,65.31
2023-04-11T03:07:57.896Z,65.66
2023-04-11T03:10:00.646Z,65.96
2023-04-11T03:12:02.637Z,66.06
2023-04-11T03:14:04.715Z,65.81
2023-04-11T03:16:07.505Z,65.45
2023-04-11T03:18:09.499Z,65.73
2023-04-11T03:20:11.918Z,65.56
2023-04-11T03:22:13.886Z,65.87
2023-04-11T03:24:15.838Z,65.57
2023-04-11T03:26:18.692Z,65.44
2023-04-11T03:28:20.670Z,65.47
2023-04-11T03:30:22.604Z,65.73
2023-04-11T03:32:24.636Z,65.63
2023-04-11T03:34:27.082Z,65.40
2023-04-11T03:36:29.713Z,66.10
2023-04-11T03:38:31.820Z,65.85
2023-04-11T03:40:33.747Z,66.31
2023-04-11T03:42:36.454Z,66.10
2023-04-11T03:44:38.346Z,65.73
2023-04-11T03:46:40.486Z,65.95
2023-04-11T03:48:42.421Z,65.38
2023-04-11T03:50:44.575Z,65.91
2023-04-11T03:52:46.490Z,65.98
2023-04-11T03:54:48.409Z,66.16
2023-04-11T03:56:50.313Z,65.64
2023-04-11T03:58:52.335Z,65.61
2023-04-11T04:00:54.316Z,65.69
2023-04-11T04:02:56.545Z,65.53
2023-04-11T04:04:59.081Z,65.13
2023-04-11T04:07:01.882Z,64.74
2023-04-11T04:09:04.432Z,64.62
2023-04-11T04:11:06.390Z,64.34
2023-04-11T04:13:08.505Z,63.83
2023-04-11T04:15:11.579Z,64.52
2023-04-11T04:17:14.793Z,64.50
2023-04-11T04:19:16.737Z,64.27
2023-04-11T04:21:18.660Z,63.87
2023-04-11T04:23:20.609Z,62.89
2023-04-11T04:25:25.922Z,63.08
2023-04-11T04:27:28.036Z,62.79
2023-04-11T04:29:38.132Z,62.48
2023-04-11T04:31:41.344Z,61.88
2023-04-11T04:33:43.262Z,62.01
2023-04-11T04:35:45.297Z,62.19
2023-04-11T04:37:47.292Z,62.45
2023-04-11T04:40:02.386Z,62.54
2023-04-11T04:42:04.438Z,62.26
2023-04-11T04:44:09.835Z,61.77
2023-04-11T04:46:11.864Z,62.22
2023-04-11T04:48:14.633Z,62.34
2023-04-11T04:50:16.679Z,61.96
2023-04-11T04:52:18.704Z,61.92
2023-04-11T04:54:20.723Z,61.57
2023-04-11T04:56:22.614Z,61.61
2023-04-11T04:58:24.566Z,61.84
2023-04-11T05:00:26.579Z,62.03
2023-04-11T05:02:29.133Z,62.18
2023-04-11T05:04:34.166Z,61.93
2023-04-11T05:06:36.224Z,61.79
2023-04-11T05:08:38.201Z,61.40
2023-04-11T05:10:40.218Z,61.82
2023-04-11T05:12:42.179Z,62.34
2023-04-11T05:14:44.158Z,61.75
2023-04-11T05:16:46.511Z,61.62
2023-04-11T05:18:48.496Z,60.81
2023-04-11T05:20:50.480Z,61.53
2023-04-11T05:22:53.621Z,62.06
2023-04-11T05:24:57.041Z,61.64
2023-04-11T05:27:01.733Z,62.54
2023-04-11T05:29:03.700Z,61.91
2023-04-11T05:31:06.551Z,61.77
2023-04-11T05:33:08.564Z,62.73
2023-04-11T05:35:10.978Z,62.64
2023-04-11T05:37:12.944Z,63.13
2023-04-11T05:39:14.921Z,62.59
2023-04-11T05:41:17.024Z,62.23
2023-04-11T05:43:18.975Z,62.09
2023-04-11T05:45:21.013Z,62.48
2023-04-11T05:47:24.080Z,62.58
2023-04-11T05:49:26.086Z,62.24
2023-04-11T05:51:28.057Z,62.24
2023-04-11T05:53:30.117Z,62.49
2023-04-11T05:55:32.056Z,62.73
2023-04-11T05:57:34.038Z,63.06
2023-04-11T05:59:36.234Z,62.65
2023-04-11T06:01:39.941Z,62.97
2023-04-11T06:03:42.173Z,63.18
2023-04-11T06:05:44.288Z,63.85
2023-04-11T06:07:46.498Z,64.07
2023-04-11T06:09:49.325Z,64.13
2023-04-11T06:11:51.504Z,64.28
2023-04-11T06:13:53.498Z,63.85
2023-04-11T06:15:55.724Z,63.82
2023-04-11T06:17:57.663Z,64.38
2023-04-11T06:19:59.658Z,63.75
2023-04-11T06:22:01.754Z,63.97
2023-04-11T06:24:08.867Z,64.21
2023-04-11T06:26:11.546Z,64.22
2023-04-11T06:28:14.216Z,64.23
2023-04-11T06:30:16.552Z,63.43
2023-04-11T06:32:18.679Z,63.71
2023-04-11T06:34:20.717Z,63.75
2023-04-11T06:36:22.729Z,63.52
2023-04-11T06:38:24.659Z,63.45
2023-04-11T06:40:26.821Z,63.93
2023-04-11T06:42:28.827Z,63.36
2023-04-11T06:44:31.720Z,63.62
2023-04-11T06:46:33.805Z,63.75
2023-04-11T06:48:35.907Z,63.96
2023-04-11T06:50:39.694Z,64.12
2023-04-11T06:52:41.636Z,63.89
2023-04-11T06:54:43.646Z,63.83
2023-04-11T06:56:45.995Z,64.28
2023-04-11T06:58:48.136Z,63.58
2023-04-11T07:00:50.260Z,63.44
2023-04-11T07:02:53.155Z,63.71
2023-04-11T07:04:55.598Z,63.80
2023-04-11T07:06:57.722Z,63.51
2023-04-11T07:09:02.270Z,63.39
2023-04-11T07:11:04.797Z,63.54
2023-04-11T07:13:06.878Z,63.20
2023-04-11T07:15:10.096Z,63.32
2023-04-11T07:17:12.264Z,63.61
2023-04-11T07:19:14.301Z,62.31
2023-04-11T07:21:16.737Z,61.86
2023-04-11T07:23:19.103Z,61.37
2023-04-11T07:25:22.881Z,61.52
2023-04-11T07:27:25.071Z,61.08
2023-04-11T07:29:27.398Z,61.46
2023-04-11T07:31:29.501Z,60.85
2023-04-11T07:33:31.599Z,61.14
2023-04-11T07:35:34.952Z,60.61
2023-04-11T07:37:37.087Z,60.58
2023-04-11T07:39:40.012Z,60.51
2023-04-11T07:41:42.076Z,60.26
2023-04-11T07:43:44.155Z,60.35
2023-04-11T07:45:46.455Z,60.17
2023-04-11T07:47:49.786Z,60.72
2023-04-11T07:49:51.871Z,60.23
2023-04-11T07:51:53.876Z,59.67
2023-04-11T07:53:56.234Z,59.25
2023-04-11T07:55:58.685Z,59.89
2023-04-11T07:58:00.766Z,60.06
2023-04-11T08:00:04.353Z,59.84
2023-04-11T08:02:11.191Z,59.65
2023-04-11T08:04:14.052Z,60.31
2023-04-11T08:06:16.415Z,59.59
2023-04-11T08:08:18.480Z,58.95
2023-04-11T08:10:20.731Z,58.78
2023-04-11T08:12:23.101Z,58.42
2023-04-11T08:14:25.450Z,59.16
2023-04-11T08:16:27.922Z,58.05
2023-04-11T08:18:30.060Z,58.71
2023-04-11T08:20:32.100Z,58.74
2023-04-11T08:22:34.486Z,58.74
2023-04-11T08:24:36.715Z,59.05
2023-04-11T08:26:38.998Z,58.59
2023-04-11T08:28:43.109Z,58.44
2023-04-11T08:30:46.003Z,58.24
2023-04-11T08:32:57.945Z,58.23
2023-04-11T08:35:00.217Z,57.96
2023-04-11T08:37:02.357Z,58.60
2023-04-11T08:39:04.568Z,57.96
2023-04-11T08:41:13.232Z,57.75
2023-04-11T08:43:16.148Z,57.74
2023-04-11T08:45:24.139Z,57.72
2023-04-11T08:47:26.716Z,57.75
2023-04-11T08:49:29.473Z,58.18
2023-04-11T08:51:31.789Z,57.35
2023-04-11T08:53:36.775Z,56.42
2023-04-11T08:55:45.770Z,55.61
2023-04-11T08:57:48.218Z,55.64
2023-04-11T08:59:51.547Z,55.36
2023-04-11T09:02:09.598Z,54.51
2023-04-11T09:04:12.900Z,55.18
2023-04-11T09:06:15.452Z,54.27
2023-04-11T09:08:19.544Z,54.70
2023-04-11T09:10:22.896Z,54.55
2023-04-11T09:12:29.999Z,53.83
2023-04-11T09:14:32.976Z,52.97
2023-04-11T09:16:35.918Z,52.81
2023-04-11T09:18:41.651Z,52.45
2023-04-11T09:20:43.776Z,53.04
2023-04-11T09:22:48.752Z,53.17
2023-04-11T09:25:04.439Z,52.79
2023-04-11T09:27:10.721Z,53.01
2023-04-11T09:29:21.960Z,52.13
2023-04-11T09:31:51.999Z,52.16
2023-04-11T09:33:56.712Z,52.07
2023-04-11T09:35:59.223Z,51.14
2023-04-11T09:38:03.617Z,51.08
2023-04-11T09:40:06.695Z,51.45
2023-04-11T09:42:15.196Z,50.97
2023-04-11T09:44:17.280Z,50.82
2023-04-11T09:46:21.472Z,50.29
2023-04-11T09:48:32.072Z,49.83
2023-04-11T09:50:43.119Z,49.05
2023-04-11T09:52:52.804Z,48.40
2023-04-11T09:54:55.727Z,48.27
2023-04-11T09:56:58.782Z,48.70
2023-04-11T09:59:02.782Z,48.10
2023-04-11T10:01:09.057Z,48.05
2023-04-11T10:03:11.645Z,48.31
2023-04-11T10:05:14.335Z,47.94
2023-04-11T10:07:17.248Z,46.15
2023-04-11T10:09:20.072Z,46.36
2023-04-11T10:11:24.396Z,46.72
2023-04-11T10:13:32.764Z,45.75
2023-04-11T10:15:34.862Z,45.98
2023-04-11T10:17:37.157Z,45.21
2023-04-11T10:19:39.330Z,45.46
2023-04-11T10:21:42.779Z,44.48
2023-04-11T10:23:51.042Z,44.49
2023-04-11T10:25:55.826Z,44.33
2023-04-11T10:28:02.597Z,44.06
2023-04-11T10:30:05.457Z,44.64
2023-04-11T10:32:12.167Z,44.00
2023-04-11T10:34:15.503Z,43.55
2023-04-11T10:36:17.669Z,44.83
2023-04-11T10:38:26.430Z,44.67
2023-04-11T10:40:28.599Z,44.71
2023-04-11T10:42:34.340Z,44.44
2023-04-11T10:44:37.152Z,43.80
2023-04-11T10:46:45.650Z,43.56
2023-04-11T10:48:54.193Z,42.79
2023-04-11T10:50:57.459Z,43.15
2023-04-11T10:53:03.730Z,43.19
2023-04-11T10:55:12.445Z,43.56
2023-04-11T10:57:14.925Z,43.24
2023-04-11T10:59:23.550Z,43.25
2023-04-11T11:01:36.966Z,42.92
2023-04-11T11:03:51.349Z,42.81
2023-04-11T11:06:01.424Z,42.55
2023-04-11T11:08:03.754Z,42.28
2023-04-11T11:10:07.592Z,42.58
2023-04-11T11:12:12.996Z,42.78
2023-04-11T11:14:30.560Z,42.52
2023-04-11T11:16:33.155Z,43.17
2023-04-11T11:18:36.482Z,44.32
2023-04-11T11:20:40.302Z,44.03
2023-04-11T11:22:45.683Z,43.61
2023-04-11T11:24:48.296Z,43.78
2023-04-11T11:26:51.065Z,43.45
2023-04-11T11:28:53.812Z,42.70
2023-04-11T11:30:58.870Z,43.50
2023-04-11T11:33:16.753Z,43.96
2023-04-11T11:35:19.563Z,43.60
2023-04-11T11:37:22.309Z,44.01
2023-04-11T11:39:25.321Z,43.81
2023-04-11T11:41:28.611Z,43.88
2023-04-11T11:43:36.038Z,44.54
2023-04-11T11:45:38.693Z,44.93
2023-04-11T11:47:45.331Z,44.63
2023-04-11T11:49:49.453Z,44.59
2023-04-11T11:51:53.722Z,45.02
2023-04-11T11:54:03.296Z,45.65
2023-04-11T11:56:13.928Z,45.05
2023-04-11T11:58:17.815Z,45.31
2023-04-11T12:00:26.463Z,45.35
2023-04-11T12:02:29.544Z,44.76
2023-04-11T12:04:33.856Z,44.45
2023-04-11T12:06:36.761Z,44.05
2023-04-11T12:08:45.854Z,44.09
2023-04-11T12:10:51.319Z,43.65
2023-04-11T12:12:54.327Z,43.92
2023-04-11T12:14:57.332Z,43.79
2023-04-11T12:17:05.133Z,44.00
2023-04-11T12:19:09.649Z,43.61
2023-04-11T12:21:12.412Z,43.45
2023-04-11T12:23:15.227Z,43.75
2023-04-11T12:25:17.716Z,45.55
2023-04-11T12:27:20.274Z,49.00
2023-04-11T12:29:22.749Z,51.11
2023-04-11T12:31:27.464Z,51.61
2023-04-11T12:33:31.008Z,53.93
2023-04-11T12:35:34.004Z,54.92
2023-04-11T12:37:36.764Z,55.12
2023-04-11T12:39:39.056Z,55.88
2023-04-11T12:41:41.678Z,55.19
2023-04-11T12:43:44.100Z,55.59
2023-04-11T12:45:46.636Z,56.50
2023-04-11T12:47:49.293Z,56.18
2023-04-11T12:49:52.010Z,55.65
2023-04-11T12:51:55.700Z,56.05
2023-04-11T12:53:58.241Z,56.23
2023-04-11T12:56:00.680Z,55.72
2023-04-11T12:58:04.299Z,54.62
2023-04-11T13:00:08.777Z,53.97
2023-04-11T13:02:11.581Z,53.94
2023-04-11T13:04:14.159Z,53.22
2023-04-11T13:06:17.182Z,52.76
2023-04-11T13:08:19.351Z,52.26
2023-04-11T13:10:21.754Z,51.30
2023-04-11T13:12:24.333Z,50.92
2023-04-11T13:14:26.889Z,50.86
2023-04-11T13:16:29.527Z,49.36
2023-04-11T13:18:31.834Z,49.48
2023-04-11T13:20:34.185Z,48.74
2023-04-11T13:22:40.519Z,48.14
2023-04-11T13:24:42.870Z,47.63
2023-04-11T13:26:46.024Z,47.83
2023-04-11T13:28:48.314Z,47.55
2023-04-11T13:30:52.457Z,49.66
2023-04-11T13:32:54.828Z,50.85
2023-04-11T13:34:57.018Z,52.52
2023-04-11T13:36:59.483Z,52.49
2023-04-11T13:39:01.941Z,53.57
2023-04-11T13:41:04.621Z,53.92
2023-04-11T13:43:07.320Z,53.70
2023-04-11T13:45:10.370Z,53.87
2023-04-11T13:47:12.965Z,53.79
2023-04-11T13:49:15.236Z,55.02
2023-04-11T13:51:17.798Z,54.93
2023-04-11T13:53:20.901Z,55.35
2023-04-11T13:55:23.967Z,55.17
2023-04-11T13:57:34.646Z,55.58
2023-04-11T13:59:37.049Z,54.97
2023-04-11T14:01:40.208Z,55.03
2023-04-11T14:03:43.398Z,55.12
2023-04-11T14:05:45.816Z,55.48
2023-04-11T14:07:48.076Z,55.23
2023-04-11T14:09:50.359Z,55.59
2023-04-11T14:11:52.894Z,55.60
2023-04-11T14:13:55.509Z,56.44
2023-04-11T14:16:08.238Z,57.31
2023-04-11T14:18:11.803Z,58.39
2023-04-11T14:20:15.377Z,57.79
2023-04-11T14:22:18.307Z,57.71
2023-04-11T14:24:28.696Z,57.07
2023-04-11T14:26:31.258Z,56.41
2023-04-11T14:28:34.258Z,56.63
2023-04-11T14:30:36.856Z,56.14
2023-04-11T14:32:41.849Z,55.14
2023-04-11T14:34:44.552Z,54.11
2023-04-11T14:36:47.266Z,53.55
2023-04-11T14:38:49.855Z,53.90
2023-04-11T14:40:52.760Z,53.34
2023-04-11T14:42:56.962Z,53.07
2023-04-11T14:44:59.572Z,53.58
2023-04-11T14:47:02.265Z,53.25
2023-04-11T14:49:05.608Z,52.43
2023-04-11T14:51:09.204Z,50.44
2023-04-11T14:53:12.079Z,50.40
2023-04-11T14:55:14.858Z,50.00
2023-04-11T14:57:17.608Z,49.57
2023-04-11T14:59:20.086Z,49.40
2023-04-11T15:01:22.663Z,48.73
2023-04-11T15:03:25.689Z,48.51
2023-04-11T15:05:28.782Z,48.83
2023-04-11T15:07:31.935Z,48.86
2023-04-11T15:09:35.056Z,48.96
2023-04-11T15:11:37.712Z,48.84
2023-04-11T15:13:40.666Z,48.63
2023-04-11T15:15:43.131Z,48.95
2023-04-11T15:17:48.953Z,50.10
2023-04-11T15:19:51.693Z,51.07
2023-04-11T15:21:54.568Z,51.12
2023-04-11T15:23:58.145Z,52.45
2023-04-11T15:26:03.326Z,53.91
2023-04-11T15:28:06.706Z,54.82
2023-04-11T15:30:10.678Z,55.38
2023-04-11T15:32:13.764Z,56.63
2023-04-11T15:34:23.631Z,57.22
2023-04-11T15:36:26.294Z,58.17
2023-04-11T15:38:29.372Z,59.06
2023-04-11T15:40:32.045Z,60.90
2023-04-11T15:42:38.964Z,62.20
2023-04-11T15:44:41.519Z,62.49
2023-04-11T15:46:45.490Z,61.91
2023-04-11T15:48:48.669Z,62.06
2023-04-11T15:50:51.573Z,61.62
2023-04-11T15:52:56.777Z,62.20
2023-04-11T15:55:00.672Z,62.79
2023-04-11T15:57:04.105Z,61.74
2023-04-11T15:59:08.356Z,62.59
2023-04-11T16:01:24.090Z,62.88
2023-04-11T16:03:31.913Z,63.65
2023-04-11T16:05:38.427Z,62.51
2023-04-11T16:07:42.925Z,63.64
2023-04-11T16:09:46.660Z,63.83
2023-04-11T16:11:49.334Z,64.10
2023-04-11T16:13:51.776Z,64.00
2023-04-11T16:15:54.420Z,64.97
2023-04-11T16:17:56.789Z,65.13
2023-04-11T16:20:01.423Z,65.59
2023-04-11T16:22:04.326Z,65.93
2023-04-11T16:24:07.146Z,66.72
2023-04-11T16:26:10.939Z,67.45
2023-04-11T16:28:14.637Z,68.07
2023-04-11T16:30:17.453Z,68.89
2023-04-11T16:32:19.897Z,69.27
2023-04-11T16:34:22.789Z,70.36
2023-04-11T16:36:25.551Z,71.40
2023-04-11T16:38:27.962Z,71.88
2023-04-11T16:40:32.041Z,71.69
2023-04-11T16:42:34.562Z,71.96
2023-04-11T16:44:37.646Z,72.23
2023-04-11T16:46:41.998Z,71.63
2023-04-11T16:48:45.147Z,72.02
2023-04-11T16:50:47.752Z,73.36
2023-04-11T16:52:50.839Z,73.54
2023-04-11T16:55:00.199Z,73.94
2023-04-11T16:57:03.536Z,73.45
2023-04-11T16:59:06.461Z,73.85
2023-04-11T17:01:10.724Z,74.50
2023-04-11T17:03:13.469Z,74.41
2023-04-11T17:05:19.417Z,74.35
2023-04-11T17:07:21.700Z,75.15
2023-04-11T17:09:24.462Z,74.88
2023-04-11T17:11:27.089Z,74.63
2023-04-11T17:13:29.648Z,75.98
2023-04-11T17:15:32.509Z,75.46
2023-04-11T17:17:35.322Z,74.91
2023-04-11T17:19:37.861Z,75.78
2023-04-11T17:21:40.668Z,75.02
2023-04-11T17:23:43.703Z,76.63
2023-04-11T17:25:46.329Z,75.50
2023-04-11T17:27:49.425Z,75.13
2023-04-11T17:29:52.198Z,76.07
2023-04-11T17:31:54.787Z,75.77
2023-04-11T17:33:57.737Z,76.15
2023-04-11T17:36:01.784Z,75.84
2023-04-11T17:38:04.981Z,76.03
2023-04-11T17:40:11.847Z,76.47
2023-04-11T17:42:15.061Z,75.98
2023-04-11T17:44:21.501Z,75.45
2023-04-11T17:46:23.961Z,76.88
2023-04-11T17:48:26.576Z,75.92
2023-04-11T17:50:29.606Z,75.92
2023-04-11T17:52:34.066Z,75.84
2023-04-11T17:54:36.873Z,77.15
2023-04-11T17:56:39.756Z,77.27
2023-04-11T17:58:45.066Z,77.06
2023-04-11T18:00:56.073Z,78.38
2023-04-11T18:03:00.380Z,78.01
2023-04-11T18:05:07.687Z,77.33
2023-04-11T18:07:15.915Z,78.08
2023-04-11T18:09:18.560Z,78.32
2023-04-11T18:11:21.466Z,78.14
2023-04-11T18:13:23.875Z,78.97
2023-04-11T18:15:28.316Z,79.15
2023-04-11T18:17:30.723Z,78.71
2023-04-11T18:19:33.339Z,79.53
2023-04-11T18:21:36.273Z,79.86
2023-04-11T18:23:39.376Z,79.88
2023-04-11T18:25:41.672Z,80.10
2023-04-11T18:27:44.062Z,79.53
2023-04-11T18:29:47.622Z,80.01
2023-04-11T18:31:49.928Z,79.70
2023-04-11T18:33:52.217Z,80.52
2023-04-11T18:35:54.376Z,80.14
2023-04-11T18:37:56.977Z,80.70
2023-04-11T18:39:59.488Z,79.80
2023-04-11T18:42:03.900Z,81.44
2023-04-11T18:44:07.848Z,80.88
2023-04-11T18:46:11.641Z,82.13
2023-04-11T18:48:13.823Z,81.50
2023-04-11T18:50:16.304Z,81.55
2023-04-11T18:52:18.415Z,81.58
2023-04-11T18:54:21.608Z,82.25
2023-04-11T18:56:23.843Z,81.82
2023-04-11T18:58:28.388Z,82.04
2023-04-11T19:00:32.623Z,82.70
2023-04-11T19:02:35.433Z,82.00
2023-04-11T19:04:39.018Z,82.00
2023-04-11T19:06:41.526Z,81.60
2023-04-11T19:08:44.209Z,81.58
2023-04-11T19:10:46.892Z,81.39
2023-04-11T19:12:50.839Z,81.19
2023-04-11T19:14:53.126Z,81.63
2023-04-11T19:16:56.966Z,80.73
2023-04-11T19:19:00.036Z,80.61
2023-04-11T19:21:02.728Z,79.89
2023-04-11T19:23:05.507Z,81.18
2023-04-11T19:25:11.596Z,79.93
2023-04-11T19:27:18.561Z,80.13
2023-04-11T19:29:21.273Z,80.09
2023-04-11T19:31:26.365Z,80.54
2023-04-11T19:33:29.070Z,81.05
2023-04-11T19:35:31.969Z,80.60
2023-04-11T19:37:34.774Z,80.67
2023-04-11T19:39:38.537Z,82.01
2023-04-11T19:41:46.880Z,82.01
2023-04-11T19:43:49.820Z,84.21
2023-04-11T19:45:52.550Z,83.08
2023-04-11T19:47:55.361Z,83.26
2023-04-11T19:49:59.064Z,83.78
2023-04-11T19:52:01.590Z,83.20
2023-04-11T19:54:04.593Z,83.78
2023-04-11T19:56:11.238Z,83.59
2023-04-11T19:58:13.855Z,84.03
2023-04-11T20:00:17.817Z,83.51
2023-04-11T20:02:20.834Z,83.39
2023-04-11T20:04:23.779Z,83.98
2023-04-11T20:06:28.513Z,84.69
2023-04-11T20:08:31.392Z,85.04
2023-04-11T20:10:34.691Z,84.78
2023-04-11T20:12:37.589Z,84.92
2023-04-11T20:14:40.271Z,84.92
2023-04-11T20:16:43.272Z,84.08
2023-04-11T20:18:46.218Z,84.37
2023-04-11T20:20:48.848Z,85.01
2023-04-11T20:22:51.368Z,85.16
2023-04-11T20:24:53.906Z,84.84
2023-04-11T20:26:57.504Z,86.14
2023-04-11T20:29:00.526Z,86.26
2023-04-11T20:31:04.919Z,84.42
2023-04-11T20:33:08.134Z,85.72
2023-04-11T20:35:12.659Z,85.66
2023-04-11T20:37:16.975Z,85.50
2023-04-11T20:39:21.192Z,85.95
2023-04-11T20:41:24.842Z,85.74
2023-04-11T20:43:27.395Z,85.17
2023-04-11T20:45:30.286Z,85.70
2023-04-11T20:47:34.480Z,85.44
2023-04-11T20:49:37.206Z,85.08
2023-04-11T20:51:39.673Z,85.24
2023-04-11T20:53:42.259Z,85.83
2023-04-11T20:55:44.541Z,86.22
2023-04-11T20:57:46.816Z,86.89
2023-04-11T20:59:50.763Z,87.04
2023-04-11T21:01:53.929Z,86.95
2023-04-11T21:03:57.727Z,87.77
2023-04-11T21:06:00.156Z,87.94
2023-04-11T21:08:02.325Z,87.81
2023-04-11T21:10:06.530Z,87.70
2023-04-11T21:12:08.686Z,88.05
2023-04-11T21:14:10.860Z,89.63
2023-04-11T21:16:13.090Z,88.69
2023-04-11T21:18:15.162Z,88.01
2023-04-11T21:20:18.839Z,89.00
2023-04-11T21:22:21.372Z,88.77
2023-04-11T21:24:23.553Z,87.80
2023-04-11T21:26:26.352Z,87.98
2023-04-11T21:28:30.884Z,86.48
2023-04-11T21:30:33.231Z,87.54
2023-04-11T21:32:36.167Z,87.76
2023-04-11T21:34:38.344Z,84.72
2023-04-11T21:36:40.520Z,83.99
2023-04-11T21:38:42.851Z,83.70
2023-04-11T21:40:45.177Z,82.52
2023-04-11T21:42:47.240Z,83.56
2023-04-11T21:44:49.515Z,82.38
2023-04-11T21:46:52.042Z,81.91
2023-04-11T21:48:54.264Z,80.90
2023-04-11T21:50:56.527Z,80.10
2023-04-11T21:52:58.744Z,79.91
2023-04-11T21:55:00.921Z,79.30
2023-04-11T21:57:03.134Z,78.67
2023-04-11T21:59:05.216Z,78.99
2023-04-11T22:01:12.079Z,78.17
2023-04-11T22:03:19.938Z,78.25
2023-04-11T22:05:22.516Z,77.98
2023-04-11T22:07:24.935Z,79.24
2023-04-11T22:09:27.266Z,80.48
2023-04-11T22:11:29.895Z,81.74
2023-04-11T22:13:32.029Z,81.74
2023-04-11T22:15:34.162Z,81.69
2023-04-11T22:17:37.416Z,82.30
2023-04-11T22:19:42.420Z,81.89
2023-04-11T22:21:48.859Z,82.67
2023-04-11T22:23:56.378Z,82.96
2023-04-11T22:25:59.464Z,83.08
2023-04-11T22:28:01.595Z,83.21
2023-04-11T22:30:05.513Z,83.65
2023-04-11T22:32:08.370Z,82.61
2023-04-11T22:34:10.633Z,83.21
2023-04-11T22:36:12.829Z,83.26
2023-04-11T22:38:16.062Z,83.30
2023-04-11T22:40:22.400Z,83.13
2023-04-11T22:42:25.043Z,82.45
2023-04-11T22:44:27.153Z,81.54
2023-04-11T22:46:33.949Z,81.34
2023-04-11T22:48:36.634Z,81.23
2023-04-11T22:50:39.082Z,81.28
2023-04-11T22:52:42.434Z,80.19
2023-04-11T22:54:44.487Z,80.62
2023-04-11T22:56:48.733Z,79.55
2023-04-11T22:58:50.814Z,78.94
2023-04-11T23:00:52.948Z,79.06
2023-04-11T23:02:55.406Z,78.99
2023-04-11T23:04:58.191Z,79.05
2023-04-11T23:07:00.280Z,78.92
2023-04-11T23:09:02.326Z,78.82
2023-04-11T23:11:05.227Z,78.94
2023-04-11T23:13:07.268Z,77.54
2023-04-11T23:15:10.200Z,77.25
2023-04-11T23:17:12.956Z,78.23
2023-04-11T23:19:15.060Z,78.22
2023-04-11T23:21:17.110Z,76.81
2023-04-11T23:23:19.991Z,77.28
2023-04-11T23:25:22.372Z,77.87
2023-04-11T23:27:24.627Z,77.86
2023-04-11T23:29:27.647Z,77.12
2023-04-11T23:31:31.804Z,76.82
2023-04-11T23:33:34.301Z,76.95
2023-04-11T23:35:36.460Z,76.29
2023-04-11T23:37:38.600Z,76.51
2023-04-11T23:39:41.256Z,76.58
2023-04-11T23:41:43.656Z,76.38
2023-04-11T23:43:45.862Z,75.99
2023-04-11T23:45:48.246Z,75.65
2023-04-11T23:47:51.272Z,76.08
2023-04-11T23:49:53.328Z,75.91
2023-04-11T23:51:55.306Z,75.44
2023-04-11T23:53:57.533Z,77.12
2023-04-11T23:55:59.778Z,76.16
2023-04-11T23:58:01.788Z,75.95
